Terminal Aerodrome Forecast
Issued by NWS Central Illinois

Home | Current Version | Previous Version | Text Only | Print | Product List | Glossary On
Versions: 1 2 3 4 5 6 7 8 9 10 11 12 13 14 15 16 17 18 19 20 21 22 23 24 25 26 27 28
805
FTUS43 KILX 220913 AAD
TAFSPI
TAF AMD
KSPI 220913Z 2209/2306 21006KT 3SM BR SCT003
      TEMPO 2209/2211 3/4SM BR
     FM221500 20005KT P6SM FEW008
     FM221900 20010KT P6SM FEW250=

USA.gov is the U.S. government's official web portal to all federal, state and local government web resources and services.